South River, Missouri
Current Conditions -  °F | °C
As of 4:15 PM on Wednesday 28 Jan 2015 (Local Time) from KHAE Reporting Station
Clear Clear  
Wind Chill: 50°   Ceiling: Unl
Heat Index: 50°   Visibility: 10mi
Dew Point: 30°   Wind: 13mph
Humidity: 47%   Direction: 150°SSE
Pressure: 29.87"   Gusts: 17mph
Location:  39.7865°N, 91.559°W
Report Text: KHAE 282215Z AUTO 15011G15KT 10SM CLR 10/M01 A2987 RMK AO2
Loading
Personal Weather Stations






























Interactive Weather Map New forecast layout! Learn more

10-Day Weather Forecast

Advertisements
Track Severe Weather on mobile